createdAt,value
2018-03-15T00:02:26.962Z,24.63
2018-03-15T00:04:54.555Z,24.55
2018-03-15T00:07:22.163Z,24.87
2018-03-15T00:09:49.771Z,24.95
2018-03-15T00:12:17.381Z,25.08
2018-03-15T00:14:45.052Z,26.30
2018-03-15T00:17:12.616Z,25.52
2018-03-15T00:19:40.238Z,26.92
2018-03-15T00:22:08.593Z,25.77
2018-03-15T00:24:36.187Z,25.58
2018-03-15T00:27:03.764Z,27.05
2018-03-15T00:29:31.402Z,27.30
2018-03-15T00:31:59.806Z,27.42
2018-03-15T00:34:27.418Z,26.95
2018-03-15T00:36:55.042Z,28.40
2018-03-15T00:39:22.646Z,29.85
2018-03-15T00:41:51.935Z,27.95
2018-03-15T00:44:19.556Z,29.05
2018-03-15T00:46:47.175Z,30.25
2018-03-15T00:49:15.527Z,27.52
2018-03-15T00:51:43.141Z,30.98
2018-03-15T00:54:10.703Z,28.30
2018-03-15T00:56:38.322Z,28.42
2018-03-15T00:59:05.894Z,30.08
2018-03-15T01:01:34.226Z,30.88
2018-03-15T01:04:01.835Z,29.33
2018-03-15T01:06:29.483Z,28.95
2018-03-15T01:08:57.084Z,28.17
2018-03-15T01:11:24.698Z,28.12
2018-03-15T01:13:52.286Z,27.48
2018-03-15T01:16:20.633Z,29.80
2018-03-15T01:18:48.247Z,27.17
2018-03-15T01:21:15.791Z,26.85
2018-03-15T01:23:43.387Z,30.00
2018-03-15T01:26:11.066Z,28.42
2018-03-15T01:28:38.668Z,31.02
2018-03-15T01:31:06.233Z,29.87
2018-03-15T01:33:33.852Z,27.08
2018-03-15T01:36:01.417Z,28.20
2018-03-15T01:38:28.988Z,28.10
2018-03-15T01:40:56.583Z,30.40
2018-03-15T01:43:24.156Z,29.30
2018-03-15T01:45:51.803Z,28.80
2018-03-15T01:48:19.438Z,28.95
2018-03-15T01:50:47.820Z,31.42
2018-03-15T01:53:16.226Z,30.60
2018-03-15T01:55:43.831Z,28.75
2018-03-15T01:58:11.455Z,29.70
2018-03-15T02:00:39.927Z,30.35
2018-03-15T02:03:08.132Z,30.17
2018-03-15T02:05:35.698Z,29.98
2018-03-15T02:08:03.287Z,30.08
2018-03-15T02:10:31.691Z,29.58
2018-03-15T02:18:53.498Z,27.35
2018-03-15T02:21:21.139Z,25.80
2018-03-15T02:23:48.755Z,25.23
2018-03-15T02:26:17.132Z,28.15
2018-03-15T02:28:45.500Z,26.33
2018-03-15T02:31:13.073Z,27.70
2018-03-15T02:33:40.659Z,28.05
2018-03-15T02:36:08.286Z,27.02
2018-03-15T02:38:35.911Z,27.52
2018-03-15T02:41:03.527Z,28.15
2018-03-15T02:43:31.084Z,29.10
2018-03-15T02:45:58.710Z,29.80
2018-03-15T02:48:26.340Z,29.77
2018-03-15T02:50:53.994Z,27.58
2018-03-15T02:53:21.601Z,28.83
2018-03-15T02:55:49.234Z,29.15
2018-03-15T02:58:16.832Z,29.77
2018-03-15T03:00:45.240Z,31.50
2018-03-15T03:03:12.902Z,30.55
2018-03-15T03:05:40.521Z,29.70
2018-03-15T03:08:08.132Z,30.60
2018-03-15T03:10:35.739Z,29.48
2018-03-15T03:13:03.380Z,28.42
2018-03-15T03:15:31.007Z,33.67
2018-03-15T03:17:59.178Z,33.40
2018-03-15T03:20:26.793Z,33.35
2018-03-15T03:22:54.393Z,32.60
2018-03-15T03:25:21.980Z,33.20
2018-03-15T03:27:49.623Z,32.35
2018-03-15T03:30:17.240Z,28.40
2018-03-15T03:32:44.863Z,29.52
2018-03-15T03:35:13.430Z,29.42
2018-03-15T03:37:41.080Z,27.92
2018-03-15T03:40:08.647Z,27.08
2018-03-15T03:42:36.247Z,28.60
2018-03-15T03:45:03.854Z,27.70
2018-03-15T03:47:32.219Z,28.15
2018-03-15T03:50:01.393Z,28.92
2018-03-15T03:52:29.020Z,25.83
2018-03-15T03:54:56.638Z,27.20
2018-03-15T03:57:24.984Z,26.35
2018-03-15T03:59:53.286Z,28.50
2018-03-15T04:02:20.904Z,28.92
2018-03-15T04:04:48.495Z,28.50
2018-03-15T04:07:16.127Z,26.67
2018-03-15T04:09:43.721Z,27.70
2018-03-15T04:12:11.330Z,26.55
2018-03-15T04:14:38.921Z,28.15
2018-03-15T04:17:08.222Z,29.63
2018-03-15T04:19:35.862Z,31.15
2018-03-15T04:22:03.430Z,28.48
2018-03-15T04:24:31.045Z,28.70
2018-03-15T04:26:59.449Z,29.15
2018-03-15T04:29:27.023Z,30.40
2018-03-15T04:31:54.655Z,28.87
2018-03-15T04:34:22.872Z,26.98
2018-03-15T04:36:50.470Z,27.40
2018-03-15T04:39:18.791Z,25.88
2018-03-15T04:41:46.411Z,26.80
2018-03-15T04:44:14.023Z,25.15
2018-03-15T04:46:41.688Z,25.10
2018-03-15T04:49:09.373Z,24.08
2018-03-15T04:51:36.946Z,23.42
2018-03-15T04:54:04.560Z,22.60
2018-03-15T04:56:32.142Z,24.87
2018-03-15T04:58:59.708Z,25.12
2018-03-15T05:01:27.281Z,24.08
2018-03-15T05:03:54.894Z,24.50
2018-03-15T05:06:22.536Z,23.52
2018-03-15T05:08:50.130Z,26.98
2018-03-15T05:11:17.756Z,22.55
2018-03-15T05:13:45.319Z,26.83
2018-03-15T05:16:12.936Z,25.80
2018-03-15T05:18:40.512Z,29.60
2018-03-15T05:21:14.271Z,28.77
2018-03-15T05:23:41.831Z,28.00
2018-03-15T05:26:09.475Z,29.77
2018-03-15T05:28:37.067Z,30.48
2018-03-15T05:31:04.671Z,28.77
2018-03-15T05:33:32.244Z,27.75
2018-03-15T05:35:59.846Z,26.50
2018-03-15T05:38:27.427Z,24.98
2018-03-15T05:40:55.000Z,25.90
2018-03-15T05:43:23.362Z,26.33
2018-03-15T05:45:50.981Z,26.42
2018-03-15T05:48:18.563Z,26.27
2018-03-15T05:50:47.125Z,25.45
2018-03-15T05:53:14.748Z,26.55
2018-03-15T05:55:42.347Z,26.62
2018-03-15T05:58:09.903Z,26.92
2018-03-15T06:00:37.482Z,24.67
2018-03-15T06:03:05.071Z,24.37
2018-03-15T06:05:32.661Z,24.80
2018-03-15T06:08:00.281Z,24.30
2018-03-15T06:10:27.886Z,22.60
2018-03-15T06:12:55.462Z,23.02
2018-03-15T06:15:23.065Z,23.52
2018-03-15T06:17:50.697Z,23.95
2018-03-15T06:20:18.318Z,24.52
2018-03-15T06:22:45.905Z,25.62
2018-03-15T06:25:13.515Z,26.37
2018-03-15T06:27:41.895Z,27.85
2018-03-15T06:30:10.283Z,28.20
2018-03-15T06:32:38.622Z,25.58
2018-03-15T06:35:07.242Z,25.98
2018-03-15T06:37:35.590Z,25.42
2018-03-15T06:40:03.175Z,22.35
2018-03-15T06:42:31.548Z,24.30
2018-03-15T06:44:59.935Z,23.52
2018-03-15T06:47:28.311Z,24.27
2018-03-15T06:49:57.553Z,23.12
2018-03-15T06:52:25.119Z,22.55
2018-03-15T06:54:52.711Z,24.08
2018-03-15T06:57:20.301Z,22.55
2018-03-15T06:59:47.894Z,22.13
2018-03-15T07:02:15.484Z,46.28
2018-03-15T07:04:43.391Z,26.45
2018-03-15T07:07:11.011Z,25.75
2018-03-15T07:09:38.660Z,23.33
2018-03-15T07:12:06.240Z,22.52
2018-03-15T07:14:33.824Z,21.35
2018-03-15T07:17:02.225Z,21.45
2018-03-15T07:19:29.810Z,21.08
2018-03-15T07:21:57.479Z,21.60
2018-03-15T07:24:25.048Z,22.10
2018-03-15T07:26:52.724Z,23.60
2018-03-15T07:29:20.302Z,23.77
2018-03-15T07:31:48.936Z,22.10
2018-03-15T07:34:16.536Z,20.17
2018-03-15T07:36:44.110Z,21.95
2018-03-15T07:39:12.490Z,21.48
2018-03-15T07:41:40.869Z,19.37
2018-03-15T07:44:08.447Z,19.85
2018-03-15T07:46:36.003Z,20.27
2018-03-15T07:49:03.631Z,19.27
2018-03-15T07:51:31.212Z,19.65
2018-03-15T07:53:58.808Z,18.55
2018-03-15T07:56:26.380Z,18.98
2018-03-15T07:58:53.991Z,20.65
2018-03-15T08:01:21.607Z,17.50
2018-03-15T08:03:49.229Z,18.27
2018-03-15T08:06:16.858Z,18.40
2018-03-15T08:08:45.239Z,21.40
2018-03-15T08:11:13.631Z,21.02
2018-03-15T08:13:41.253Z,21.62
2018-03-15T08:16:08.847Z,19.48
2018-03-15T08:18:36.452Z,19.42
2018-03-15T08:21:04.108Z,20.55
2018-03-15T08:23:31.753Z,20.20
2018-03-15T08:25:59.365Z,19.15
2018-03-15T08:28:26.936Z,18.62
2018-03-15T08:30:54.551Z,17.27
2018-03-15T08:33:22.192Z,18.60
2018-03-15T08:35:50.642Z,17.62
2018-03-15T08:38:18.287Z,17.52
2018-03-15T08:40:45.924Z,17.05
2018-03-15T08:43:13.519Z,16.30
2018-03-15T08:45:41.902Z,19.17
2018-03-15T08:48:10.350Z,14.67
2018-03-15T08:50:37.916Z,15.73
2018-03-15T08:53:06.723Z,16.40
2018-03-15T08:55:35.118Z,17.05
2018-03-15T08:58:03.474Z,17.30
2018-03-15T09:00:31.048Z,18.17
2018-03-15T09:02:59.419Z,17.90
2018-03-15T09:05:27.801Z,18.53
2018-03-15T09:07:56.322Z,18.30
2018-03-15T09:10:24.608Z,18.20
2018-03-15T09:12:52.948Z,17.87
2018-03-15T09:15:21.275Z,18.10
2018-03-15T09:17:48.841Z,17.00
2018-03-15T09:20:16.486Z,17.77
2018-03-15T09:25:40.583Z,16.80
2018-03-15T09:28:08.146Z,17.03
2018-03-15T09:30:35.721Z,15.67
2018-03-15T09:33:03.356Z,16.20
2018-03-15T09:35:30.963Z,15.77
2018-03-15T09:37:59.347Z,15.27
2018-03-15T09:40:27.695Z,15.80
2018-03-15T09:42:55.331Z,15.40
2018-03-15T09:45:22.939Z,15.60
2018-03-15T09:47:51.324Z,14.40
2018-03-15T09:50:19.731Z,14.90
2018-03-15T09:52:47.389Z,14.67
2018-03-15T09:55:15.033Z,15.27
2018-03-15T09:57:42.592Z,16.10
2018-03-15T10:00:11.007Z,15.80
2018-03-15T10:02:38.605Z,16.23
2018-03-15T10:05:06.999Z,16.20
2018-03-15T10:07:34.639Z,16.70
2018-03-15T10:10:03.215Z,17.73
2018-03-15T10:12:30.881Z,16.77
2018-03-15T10:14:58.466Z,16.20
2018-03-15T10:17:26.856Z,18.17
2018-03-15T10:19:54.496Z,15.80
2018-03-15T10:22:22.863Z,16.47
2018-03-15T10:24:50.496Z,16.20
2018-03-15T10:27:18.842Z,17.03
2018-03-15T10:29:47.344Z,17.07
2018-03-15T10:32:14.998Z,22.67
2018-03-15T10:34:42.665Z,21.93
2018-03-15T10:37:11.018Z,19.20
2018-03-15T10:39:38.641Z,18.27
2018-03-15T10:42:06.279Z,15.30
2018-03-15T10:44:33.927Z,14.10
2018-03-15T10:47:01.578Z,14.43
2018-03-15T10:49:29.250Z,14.27
2018-03-15T10:51:56.777Z,13.23
2018-03-15T10:54:24.407Z,13.50
2018-03-15T10:56:52.015Z,11.80
2018-03-15T10:59:19.618Z,10.40
2018-03-15T11:01:49.203Z,9.60
2018-03-15T11:04:16.814Z,9.93
2018-03-15T11:06:50.827Z,9.87
2018-03-15T11:09:23.100Z,10.73
2018-03-15T11:11:51.472Z,9.87
2018-03-15T11:14:19.083Z,10.90
2018-03-15T11:16:46.719Z,11.70
2018-03-15T11:19:14.296Z,9.83
2018-03-15T11:21:41.927Z,9.80
2018-03-15T11:24:09.563Z,10.53
2018-03-15T11:26:37.164Z,9.43
2018-03-15T11:29:04.814Z,9.70
2018-03-15T11:31:33.190Z,9.80
2018-03-15T11:34:00.803Z,8.80
2018-03-15T11:36:30.175Z,9.00
2018-03-15T11:38:58.068Z,9.40
2018-03-15T11:41:25.706Z,9.70
2018-03-15T11:43:53.368Z,10.27
2018-03-15T11:46:21.031Z,10.97
2018-03-15T11:48:48.680Z,10.23
2018-03-15T11:51:16.248Z,10.10
2018-03-15T11:53:43.870Z,9.60
2018-03-15T11:56:12.332Z,9.03
2018-03-15T11:58:39.848Z,8.77
2018-03-15T12:01:07.442Z,9.50
2018-03-15T12:03:35.064Z,9.40
2018-03-15T12:06:02.727Z,9.50
2018-03-15T12:08:30.336Z,8.80
2018-03-15T12:10:57.968Z,8.20
2018-03-15T12:13:25.586Z,8.63
2018-03-15T12:15:53.954Z,9.30
2018-03-15T12:18:21.562Z,9.10
2018-03-15T12:20:49.159Z,8.33
2018-03-15T12:23:16.763Z,8.50
2018-03-15T12:25:45.042Z,8.70
2018-03-15T12:28:12.605Z,9.03
2018-03-15T12:30:40.174Z,8.17
2018-03-15T12:33:07.818Z,8.40
2018-03-15T12:35:35.384Z,7.53
2018-03-15T12:38:02.972Z,7.87
2018-03-15T12:40:30.546Z,8.10
2018-03-15T12:42:58.129Z,8.30
2018-03-15T12:45:25.748Z,8.90
2018-03-15T12:47:53.315Z,8.10
2018-03-15T12:50:20.924Z,7.57
2018-03-15T12:52:49.265Z,8.40
2018-03-15T12:55:16.862Z,8.47
2018-03-15T12:57:45.175Z,8.30
2018-03-15T13:00:12.812Z,8.83
2018-03-15T13:02:40.419Z,8.70
2018-03-15T13:05:08.025Z,10.20
2018-03-15T13:07:36.379Z,8.17
2018-03-15T13:10:04.036Z,8.57
2018-03-15T13:12:31.612Z,8.80
2018-03-15T13:15:00.009Z,9.63
2018-03-15T13:17:28.341Z,8.50
2018-03-15T13:19:55.983Z,8.40
2018-03-15T13:22:23.548Z,8.90
2018-03-15T13:24:51.193Z,8.87
2018-03-15T13:27:18.766Z,9.97
2018-03-15T13:29:46.389Z,9.17
2018-03-15T13:32:14.722Z,9.40
2018-03-15T13:34:42.363Z,9.30
2018-03-15T13:37:10.410Z,9.57
2018-03-15T13:39:37.979Z,9.27
2018-03-15T13:42:05.586Z,9.30
2018-03-15T13:44:33.227Z,10.47
2018-03-15T13:47:00.844Z,10.70
2018-03-15T13:49:28.581Z,9.87
2018-03-15T13:51:56.946Z,9.87
2018-03-15T13:54:24.532Z,12.30
2018-03-15T13:56:52.875Z,12.20
2018-03-15T13:59:20.505Z,11.97
2018-03-15T14:01:48.054Z,13.00
2018-03-15T14:04:15.647Z,11.70
2018-03-15T14:06:43.230Z,13.77
2018-03-15T14:09:11.674Z,13.00
2018-03-15T14:11:39.279Z,13.40
2018-03-15T14:14:06.859Z,12.87
2018-03-15T14:16:34.426Z,12.70
2018-03-15T14:19:01.991Z,12.87
2018-03-15T14:21:29.581Z,13.07
2018-03-15T14:23:57.174Z,13.20
2018-03-15T14:26:24.764Z,13.77
2018-03-15T14:28:52.361Z,14.63
2018-03-15T14:31:19.959Z,15.37
2018-03-15T14:34:02.269Z,14.73
2018-03-15T14:36:30.648Z,16.00
2018-03-15T14:38:59.015Z,16.13
2018-03-15T14:41:26.664Z,14.47
2018-03-15T14:43:54.327Z,14.07
2018-03-15T14:46:21.909Z,15.03
2018-03-15T14:48:50.332Z,12.90
2018-03-15T14:51:17.990Z,18.37
2018-03-15T14:53:45.577Z,14.63
2018-03-15T14:56:13.203Z,13.47
2018-03-15T14:58:40.840Z,14.20
2018-03-15T15:01:09.543Z,14.07
2018-03-15T15:03:37.104Z,13.77
2018-03-15T15:06:04.717Z,13.07
2018-03-15T15:08:32.368Z,11.90
2018-03-15T15:11:03.356Z,11.97
2018-03-15T15:13:30.959Z,12.63
2018-03-15T15:15:58.552Z,13.43
2018-03-15T15:18:35.171Z,12.50
2018-03-15T15:21:02.811Z,13.40
2018-03-15T15:23:30.412Z,13.30
2018-03-15T15:25:58.055Z,11.50
2018-03-15T15:28:25.653Z,13.83
2018-03-15T15:30:53.845Z,12.57
2018-03-15T15:33:28.809Z,12.13
2018-03-15T15:35:56.416Z,13.60
2018-03-15T15:38:24.803Z,13.37
2018-03-15T15:40:52.451Z,12.50
2018-03-15T15:43:20.099Z,13.83
2018-03-15T15:45:47.724Z,14.03
2018-03-15T15:48:15.322Z,12.90
2018-03-15T15:50:42.976Z,13.20
2018-03-15T15:53:10.564Z,14.73
2018-03-15T15:55:38.195Z,14.17
2018-03-15T15:58:05.810Z,14.87
2018-03-15T16:00:34.199Z,14.20
2018-03-15T16:03:01.820Z,14.43
2018-03-15T16:05:29.428Z,14.20
2018-03-15T16:07:57.055Z,14.70
2018-03-15T16:10:25.451Z,14.80
2018-03-15T16:12:53.055Z,14.63
2018-03-15T16:15:22.401Z,14.10
2018-03-15T16:17:51.792Z,15.77
2018-03-15T16:20:19.408Z,14.87
2018-03-15T16:22:47.973Z,13.90
2018-03-15T16:25:16.098Z,14.13
2018-03-15T16:27:43.748Z,14.00
2018-03-15T16:30:11.336Z,14.60
2018-03-15T16:32:40.656Z,15.03
2018-03-15T16:35:16.280Z,15.60
2018-03-15T16:37:43.892Z,14.80
2018-03-15T16:40:11.504Z,15.10
2018-03-15T16:42:39.951Z,13.80
2018-03-15T16:45:09.520Z,14.07
2018-03-15T16:47:37.108Z,13.70
2018-03-15T16:50:05.450Z,15.80
2018-03-15T16:52:33.075Z,13.83
2018-03-15T16:55:00.667Z,14.67
2018-03-15T16:57:29.033Z,20.10
2018-03-15T16:59:57.451Z,14.77
2018-03-15T17:02:25.102Z,15.33
2018-03-15T17:04:52.706Z,13.37
2018-03-15T17:07:21.571Z,15.10
2018-03-15T17:09:49.199Z,12.70
2018-03-15T17:12:22.928Z,14.23
2018-03-15T17:14:50.582Z,13.13
2018-03-15T17:17:18.144Z,14.83
2018-03-15T17:19:45.828Z,14.03
2018-03-15T17:22:14.145Z,13.00
2018-03-15T17:24:41.740Z,13.43
2018-03-15T17:27:09.312Z,15.07
2018-03-15T17:29:36.878Z,15.50
2018-03-15T17:32:06.459Z,15.27
2018-03-15T17:34:36.003Z,17.17
2018-03-15T17:37:03.626Z,14.57
2018-03-15T17:39:32.200Z,16.10
2018-03-15T17:41:59.817Z,16.20
2018-03-15T17:44:27.403Z,16.03
2018-03-15T17:46:57.038Z,17.80
2018-03-15T17:49:24.707Z,17.57
2018-03-15T17:52:02.566Z,18.07
2018-03-15T17:54:30.917Z,15.07
2018-03-15T17:56:58.528Z,16.60
2018-03-15T17:59:26.150Z,18.30
2018-03-15T18:01:53.764Z,18.00
2018-03-15T18:04:21.389Z,16.87
2018-03-15T18:06:49.023Z,15.70
2018-03-15T18:09:16.683Z,16.20
2018-03-15T18:11:44.370Z,16.27
2018-03-15T18:14:11.990Z,16.80
2018-03-15T18:16:39.562Z,16.60
2018-03-15T18:19:07.158Z,17.67
2018-03-15T18:21:35.559Z,16.17
2018-03-15T18:24:03.182Z,15.90
2018-03-15T18:26:34.361Z,16.73
2018-03-15T18:29:02.012Z,16.37
2018-03-15T18:31:30.404Z,16.10
2018-03-15T18:33:58.018Z,16.13
2018-03-15T18:36:25.628Z,15.10
2018-03-15T18:38:53.294Z,15.03
2018-03-15T18:41:20.948Z,15.27
2018-03-15T18:43:48.549Z,20.30
2018-03-15T18:46:20.460Z,18.13
2018-03-15T18:48:48.863Z,23.93
2018-03-15T18:51:16.486Z,20.40
2018-03-15T18:53:44.103Z,19.40
2018-03-15T18:56:11.735Z,19.70
2018-03-15T18:58:39.295Z,20.67
2018-03-15T19:01:12.613Z,20.30
2018-03-15T19:03:34.556Z,20.70
2018-03-15T19:06:02.169Z,19.53
2018-03-15T19:08:29.811Z,20.23
2018-03-15T19:10:59.205Z,22.13
2018-03-15T19:13:27.460Z,23.90
2018-03-15T19:15:55.141Z,21.50
2018-03-15T19:18:22.776Z,22.47
2018-03-15T19:20:51.435Z,20.00
2018-03-15T19:23:19.059Z,20.20
2018-03-15T19:25:48.189Z,21.77
2018-03-15T19:28:16.291Z,21.20
2018-03-15T19:30:44.508Z,20.80
2018-03-15T19:33:12.913Z,22.13
2018-03-15T19:35:40.533Z,20.50
2018-03-15T19:38:08.882Z,21.48
2018-03-15T19:40:36.510Z,20.53
2018-03-15T19:43:04.161Z,20.80
2018-03-15T19:45:31.805Z,18.25
2018-03-15T19:48:00.174Z,19.80
2018-03-15T19:50:28.611Z,21.27
2018-03-15T19:52:56.262Z,19.77
2018-03-15T19:55:23.849Z,19.42
2018-03-15T19:57:51.471Z,19.55
2018-03-15T20:00:19.072Z,18.60
2018-03-15T20:02:47.255Z,18.30
2018-03-15T20:05:14.901Z,17.75
2018-03-15T20:07:42.520Z,16.23
2018-03-15T20:10:10.155Z,17.23
2018-03-15T20:12:38.555Z,17.47
2018-03-15T20:15:06.871Z,17.20
2018-03-15T20:17:34.512Z,16.83
2018-03-15T20:20:02.093Z,16.52
2018-03-15T20:22:35.373Z,17.23
2018-03-15T20:25:04.284Z,15.77
2018-03-15T20:27:37.761Z,16.37
2018-03-15T20:30:05.390Z,16.67
2018-03-15T20:32:38.761Z,17.10
2018-03-15T20:35:06.366Z,17.17
2018-03-15T20:37:33.976Z,17.80
2018-03-15T20:40:07.207Z,17.57
2018-03-15T20:42:34.843Z,17.20
2018-03-15T20:45:03.240Z,17.73
2018-03-15T20:47:47.530Z,17.42
2018-03-15T20:50:15.134Z,18.70
2018-03-15T20:52:43.550Z,17.17
2018-03-15T20:55:11.186Z,16.15
2018-03-15T20:57:38.761Z,17.60
2018-03-15T21:00:06.379Z,17.33
2018-03-15T21:02:33.987Z,16.37
2018-03-15T21:05:02.646Z,17.47
2018-03-15T21:07:31.038Z,16.50
2018-03-15T21:13:06.002Z,15.68
2018-03-15T21:15:33.623Z,15.75
2018-03-15T21:18:02.038Z,15.57
2018-03-15T21:20:30.856Z,15.07
2018-03-15T21:22:58.487Z,15.15
2018-03-15T21:25:26.097Z,15.95
2018-03-15T21:27:53.693Z,15.90
2018-03-15T21:30:22.108Z,14.48
2018-03-15T21:32:49.735Z,14.30
2018-03-15T21:35:18.117Z,11.93
2018-03-15T21:37:45.868Z,11.30
2018-03-15T21:40:14.257Z,10.40
2018-03-15T21:42:42.651Z,9.70
2018-03-15T21:45:10.293Z,9.20
2018-03-15T21:47:38.008Z,8.30
2018-03-15T21:50:05.720Z,8.18
2018-03-15T21:52:33.321Z,8.93
2018-03-15T21:55:00.953Z,8.63
2018-03-15T21:57:28.534Z,8.60
2018-03-15T21:59:56.931Z,8.32
2018-03-15T22:02:24.556Z,8.20
2018-03-15T22:04:52.158Z,9.10
2018-03-15T22:07:19.739Z,8.85
2018-03-15T22:09:47.339Z,8.63
2018-03-15T22:12:14.983Z,7.78
2018-03-15T22:14:42.566Z,7.90
2018-03-15T22:17:10.215Z,8.23
2018-03-15T22:19:37.815Z,8.38
2018-03-15T22:22:05.460Z,9.15
2018-03-15T22:24:33.037Z,9.20
2018-03-15T22:27:00.652Z,9.73
2018-03-15T22:29:29.006Z,10.10
2018-03-15T22:31:56.589Z,11.30
2018-03-15T22:34:24.202Z,11.70
2018-03-15T22:36:51.796Z,11.82
2018-03-15T22:42:13.244Z,9.82
2018-03-15T22:44:41.611Z,10.85
2018-03-15T22:47:10.010Z,9.65
2018-03-15T22:49:37.600Z,9.88
2018-03-15T22:52:05.241Z,9.65
2018-03-15T22:54:32.863Z,9.90
2018-03-15T22:57:01.224Z,9.65
2018-03-15T22:59:28.864Z,9.50
2018-03-15T23:01:56.452Z,9.60
2018-03-15T23:04:24.116Z,9.70
2018-03-15T23:06:51.771Z,10.15
2018-03-15T23:09:19.398Z,9.77
2018-03-15T23:11:46.976Z,9.77
2018-03-15T23:14:14.609Z,10.00
2018-03-15T23:16:42.982Z,10.13
2018-03-15T23:19:10.629Z,11.38
2018-03-15T23:21:39.019Z,10.45
2018-03-15T23:24:06.602Z,11.95
2018-03-15T23:26:34.203Z,11.35
2018-03-15T23:29:01.846Z,11.00
2018-03-15T23:31:29.495Z,10.48
2018-03-15T23:33:57.121Z,10.75
2018-03-15T23:36:24.755Z,10.90
2018-03-15T23:38:53.151Z,11.73
2018-03-15T23:41:20.780Z,12.43
2018-03-15T23:43:48.419Z,11.80
2018-03-15T23:46:16.068Z,11.50
2018-03-15T23:48:43.644Z,11.02
2018-03-15T23:51:11.959Z,12.63
2018-03-15T23:53:40.291Z,12.60
2018-03-15T23:56:07.884Z,12.85
2018-03-15T23:58:35.494Z,13.25
